Bissell, Connecticut
Current Conditions -  °F | °C
As of 2:53 PM on Thursday 29 Jan 2015 (Local Time) from KHFD Reporting Station
Clear Clear  
Wind Chill: 24°   Ceiling: Unl
Heat Index: 30°   Visibility: 10mi
Dew Point:   Wind: 6mph
Humidity: 32%   Direction: 130°SE
Pressure: 30.19"   Gusts: NA
Location:  41.8353°N, 72.5722°W
Report Text: KHFD 291953Z 13005KT 10SM CLR M01/M16 A3019 RMK AO2 SLP223 T10111161
Loading
Personal Weather Stations






























Interactive Weather Map New forecast layout! Learn more

10-Day Weather Forecast

Advertisements
Track Severe Weather on mobile